• Join FlightAware (Why Join?)
  • Login
  • US Flag 
07:03PM EDT


 

Airport Tracker/Info


-or-


 

Live Flight TrackerFlight Track Log ✈ N755SP ✈ 05-Jun-2013 ✈ KANP - KANP

Flight Track Log - Related Links

Times and Time Zones

All times are in EDT time to prevent confusion due to time zone crossing. See the N755SP flight status page for this flight to view local times or setup timezone preferences in your user account.

Time Position Orientation Groundspeed Altitude Reporting Facility
EDT Latitude Longitude Course Direction KTS MPH feet Rate Location/Type
11:47AM 38.9333 -76.5500 90° East 62 71 700  Level Potomac TRACON
11:48AM 38.9333 -76.5167 90° East 87 100 1,300 480 Climbing Potomac TRACON
11:49AM 38.9000 -76.5167 180° South 113 130 1,700 120 Climbing Potomac TRACON
11:50AM 38.8833 -76.5167 180° South 111 128 1,600 -60 Descending Potomac TRACON
11:51AM 38.8500 -76.5333 201° Southwest 109 125 1,600 -60 Level Potomac TRACON
11:52AM 38.8167 -76.5333 180° South 114 131 1,500 -60 Descending Potomac TRACON
11:53AM 38.7833 -76.5500 201° Southwest 110 127 1,500 -360 Level Potomac TRACON
11:54AM 38.7667 -76.5333 142° Southeast 119 137 800 -360 Descending Potomac TRACON
11:55AM 38.7667 -76.5333 142° Southeast 92 106 800 360 Level Potomac TRACON
11:56AM 38.7500 -76.5333 180° South 91 105 1,500 180 Climbing Potomac TRACON
11:57AM 38.7500 -76.5333 180° South 69 79 1,200 -300 Descending Potomac TRACON
11:58AM 38.7667 -76.5167 38° Northeast 111 128 900 -300 Descending Potomac TRACON
11:59AM 38.7833 -76.5000 38° Northeast 94 108 600 -240 Descending Potomac TRACON
12:00PM 38.7833 -76.5000 38° Northeast 119 137 500 -60 Descending Potomac TRACON
12:01PM 38.7667 -76.5167 218° Southwest 105 121 500 240 Level Potomac TRACON
12:02PM 38.7500 -76.5500 237° Southwest 87 100 1,100 480 Climbing Potomac TRACON
12:03PM 38.7500 -76.5500 237° Southwest 120 138 1,500 240 Climbing Potomac TRACON
12:04PM 38.7833 -76.5333 21° North 105 121 1,600  Climbing Potomac TRACON
12:05PM 38.8000 -76.5167 38° Northeast 106 122 1,500 -60 Descending Potomac TRACON
12:06PM 38.8333 -76.5333 339° North 96 110 1,500  Level Potomac TRACON
12:07PM 38.8667 -76.5333 360° North 104 120 1,600  Climbing Potomac TRACON
12:08PM 38.8833 -76.5500 322° Northwest 113 130 1,500 -60 Descending Potomac TRACON
12:09PM 38.9000 -76.5833 303° West 113 130 1,500 -60 Level Potomac TRACON
12:10PM 38.9167 -76.6167 303° West 111 128 1,400 -120 Descending Potomac TRACON
12:11PM 38.9500 -76.6000 21° North 105 121 1,300 -120 Descending Potomac TRACON
12:12PM 38.9833 -76.5833 21° North 100 115 1,200 60 Descending Potomac TRACON
12:13PM 38.9833 -76.5667 90° East 104 120 1,500 -60 Climbing Potomac TRACON
12:14PM 38.9667 -76.5500 142° Southeast 100 115 1,100 -420 Descending Potomac TRACON